Kezdőlap
METAR-TAF:

METAR-TAF

Repülőterek :

Parma, Olaszország

földrajzi szélesség: 44-49-17N, földrajzi hosszúság: 010-17-41E, magasság: 50 m

Jelenlegi meteorológiai megfigyelések

A jelentés 1 órával és 12 perccel ezelõtt készült, 20:50 UTC
Déli szél 4 kt, dél-délkeleti és dél-délnyugati között változik
Hőmérséklet 26°C
Páratartalom 58%
Légköri nyomás 1009 hPa
Látótávolság 10 km, vagy több
felhőtlen 1500 m magasságban, és nincs gomolyfelhõ

METAR: LIMP 202050Z 17004KT 150V210 CAVOK 26/17 Q1009

Idő: 00:02 (22:02 UTC)

Előrejelzés

A jelentés 5 órával és 2 perccel ezelõtt készült, 17:00 UTC
Az előrejelzés 20-én 18 óra UTC és 21-én 18 óra UTC között érvényes
Különbözõ irányokból fújó szél 5 kt
Látótávolság 10 km, vagy több
felhőtlen 1500 m magasságban, és nincs gomolyfelhõ
21-én 15 óra UTC és 21-én 18 óra UTC között ideiglenes
zivatar, esõ,

TAF: LIMP 201700Z 2018/2118 VRB05KT CAVOK TEMPO 2115/2118 TSRA

Meteorológiai megfigyelések és előrejelzések több, mint 4000 repülőtéren (METAR és TAF jelentéseket).

A térképen piros és sárga pontok jelzik az elérhető meteorológiai állomásokat.

Mozgassa az egeret a pont fölött, hogy megjelenjen az állomás neve.

Azután kattintson az időjárási megfigyelések és előrejelzések megtekintéséhez.

A térkép megváltoztatása: kattintson a fekete keresztel jelölt zöld gombra ráközelítéshez, a vonallal jelölt zöld gombra távolításhoz, vagy a zöld nyilakra a szomszédos térképek eléréséhez.


METAR-TAF: